sensor_id;sensor_type;location;lat;lon;timestamp;P1;durP1;ratioP1;P2;durP2;ratioP2
41739;SDS011;27422;52.444;13.300;2023-05-20T00:00:26;4.38;;;2.17;;
41739;SDS011;27422;52.444;13.300;2023-05-20T00:02:51;7.60;;;2.80;;
41739;SDS011;27422;52.444;13.300;2023-05-20T00:05:17;4.78;;;2.10;;
41739;SDS011;27422;52.444;13.300;2023-05-20T00:07:42;4.63;;;2.00;;
41739;SDS011;27422;52.444;13.300;2023-05-20T00:10:07;4.97;;;2.47;;
41739;SDS011;27422;52.444;13.300;2023-05-20T00:12:33;4.78;;;2.45;;
41739;SDS011;27422;52.444;13.300;2023-05-20T00:15:01;4.70;;;2.28;;
41739;SDS011;27422;52.444;13.300;2023-05-20T00:17:26;3.70;;;2.20;;
41739;SDS011;27422;52.444;13.300;2023-05-20T00:19:52;8.10;;;2.40;;
41739;SDS011;27422;52.444;13.300;2023-05-20T00:22:18;4.80;;;2.17;;
41739;SDS011;27422;52.444;13.300;2023-05-20T00:24:44;3.92;;;2.05;;
41739;SDS011;27422;52.444;13.300;2023-05-20T00:27:09;3.83;;;2.10;;
41739;SDS011;27422;52.444;13.300;2023-05-20T00:29:35;5.07;;;2.22;;
41739;SDS011;27422;52.444;13.300;2023-05-20T00:32:00;3.97;;;1.70;;
41739;SDS011;27422;52.444;13.300;2023-05-20T00:34:25;3.78;;;1.92;;
41739;SDS011;27422;52.444;13.300;2023-05-20T00:36:51;4.57;;;2.30;;
41739;SDS011;27422;52.444;13.300;2023-05-20T00:39:16;4.70;;;1.80;;
41739;SDS011;27422;52.444;13.300;2023-05-20T00:41:41;4.40;;;1.60;;
41739;SDS011;27422;52.444;13.300;2023-05-20T00:44:07;8.80;;;2.33;;
41739;SDS011;27422;52.444;13.300;2023-05-20T00:46:32;3.95;;;2.03;;
41739;SDS011;27422;52.444;13.300;2023-05-20T00:48:58;4.80;;;2.00;;
41739;SDS011;27422;52.444;13.300;2023-05-20T00:51:23;4.40;;;2.20;;
41739;SDS011;27422;52.444;13.300;2023-05-20T00:53:48;4.45;;;2.00;;
41739;SDS011;27422;52.444;13.300;2023-05-20T00:56:15;4.57;;;2.00;;
41739;SDS011;27422;52.444;13.300;2023-05-20T00:58:40;3.72;;;1.83;;
41739;SDS011;27422;52.444;13.300;2023-05-20T01:01:05;4.80;;;2.10;;
41739;SDS011;27422;52.444;13.300;2023-05-20T01:03:31;4.43;;;2.15;;
41739;SDS011;27422;52.444;13.300;2023-05-20T01:05:57;4.28;;;2.00;;
41739;SDS011;27422;52.444;13.300;2023-05-20T01:08:22;4.60;;;2.20;;
41739;SDS011;27422;52.444;13.300;2023-05-20T01:10:55;4.30;;;2.10;;
41739;SDS011;27422;52.444;13.300;2023-05-20T01:13:35;5.15;;;2.10;;
41739;SDS011;27422;52.444;13.300;2023-05-20T01:16:04;4.32;;;2.00;;
41739;SDS011;27422;52.444;13.300;2023-05-20T01:18:31;5.60;;;2.60;;
41739;SDS011;27422;52.444;13.300;2023-05-20T01:21:00;5.47;;;2.30;;
41739;SDS011;27422;52.444;13.300;2023-05-20T01:23:33;4.10;;;2.10;;
41739;SDS011;27422;52.444;13.300;2023-05-20T01:26:03;4.35;;;2.22;;
41739;SDS011;27422;52.444;13.300;2023-05-20T01:28:30;5.30;;;2.63;;
41739;SDS011;27422;52.444;13.300;2023-05-20T01:30:57;6.88;;;2.40;;
41739;SDS011;27422;52.444;13.300;2023-05-20T01:33:24;6.47;;;2.67;;
41739;SDS011;27422;52.444;13.300;2023-05-20T01:35:51;5.00;;;2.35;;
41739;SDS011;27422;52.444;13.300;2023-05-20T01:38:17;4.07;;;2.05;;
41739;SDS011;27422;52.444;13.300;2023-05-20T01:40:43;4.55;;;2.22;;
41739;SDS011;27422;52.444;13.300;2023-05-20T01:43:10;5.05;;;2.38;;
41739;SDS011;27422;52.444;13.300;2023-05-20T01:45:36;5.07;;;2.17;;
41739;SDS011;27422;52.444;13.300;2023-05-20T01:48:02;4.10;;;2.20;;
41739;SDS011;27422;52.444;13.300;2023-05-20T01:50:27;6.40;;;2.30;;
41739;SDS011;27422;52.444;13.300;2023-05-20T01:52:53;5.22;;;2.38;;
41739;SDS011;27422;52.444;13.300;2023-05-20T01:55:18;4.82;;;2.45;;
41739;SDS011;27422;52.444;13.300;2023-05-20T01:57:44;3.95;;;2.28;;
41739;SDS011;27422;52.444;13.300;2023-05-20T02:00:12;5.20;;;2.40;;
41739;SDS011;27422;52.444;13.300;2023-05-20T02:02:37;6.47;;;2.40;;
41739;SDS011;27422;52.444;13.300;2023-05-20T02:05:03;6.07;;;2.40;;
41739;SDS011;27422;52.444;13.300;2023-05-20T02:07:28;5.03;;;2.25;;
41739;SDS011;27422;52.444;13.300;2023-05-20T02:09:54;5.55;;;2.50;;
41739;SDS011;27422;52.444;13.300;2023-05-20T02:12:19;4.88;;;2.28;;
41739;SDS011;27422;52.444;13.300;2023-05-20T02:14:45;5.10;;;2.50;;
41739;SDS011;27422;52.444;13.300;2023-05-20T02:17:12;6.25;;;2.00;;
41739;SDS011;27422;52.444;13.300;2023-05-20T02:19:40;5.05;;;2.40;;
41739;SDS011;27422;52.444;13.300;2023-05-20T02:22:05;3.90;;;2.17;;
41739;SDS011;27422;52.444;13.300;2023-05-20T02:24:31;4.80;;;2.25;;
41739;SDS011;27422;52.444;13.300;2023-05-20T02:26:56;4.88;;;2.40;;
41739;SDS011;27422;52.444;13.300;2023-05-20T02:29:23;5.10;;;2.30;;
41739;SDS011;27422;52.444;13.300;2023-05-20T02:31:48;6.00;;;2.83;;
41739;SDS011;27422;52.444;13.300;2023-05-20T02:34:16;7.28;;;2.83;;
41739;SDS011;27422;52.444;13.300;2023-05-20T02:36:42;5.03;;;2.60;;
41739;SDS011;27422;52.444;13.300;2023-05-20T02:39:07;5.28;;;2.15;;
41739;SDS011;27422;52.444;13.300;2023-05-20T02:41:33;8.00;;;3.28;;
41739;SDS011;27422;52.444;13.300;2023-05-20T02:43:58;5.85;;;2.63;;
41739;SDS011;27422;52.444;13.300;2023-05-20T02:46:23;6.10;;;2.63;;
41739;SDS011;27422;52.444;13.300;2023-05-20T02:48:49;4.47;;;2.30;;
41739;SDS011;27422;52.444;13.300;2023-05-20T02:51:14;5.20;;;2.30;;
41739;SDS011;27422;52.444;13.300;2023-05-20T02:53:40;5.35;;;2.40;;
41739;SDS011;27422;52.444;13.300;2023-05-20T02:56:05;11.63;;;2.97;;
41739;SDS011;27422;52.444;13.300;2023-05-20T02:58:32;5.55;;;3.10;;
41739;SDS011;27422;52.444;13.300;2023-05-20T03:00:59;4.45;;;2.50;;
41739;SDS011;27422;52.444;13.300;2023-05-20T03:03:25;6.25;;;2.75;;
41739;SDS011;27422;52.444;13.300;2023-05-20T03:05:51;5.82;;;2.42;;
41739;SDS011;27422;52.444;13.300;2023-05-20T03:08:17;5.40;;;2.38;;
41739;SDS011;27422;52.444;13.300;2023-05-20T03:10:44;6.32;;;2.78;;
41739;SDS011;27422;52.444;13.300;2023-05-20T03:13:09;5.97;;;2.95;;
41739;SDS011;27422;52.444;13.300;2023-05-20T03:15:39;6.85;;;2.70;;
41739;SDS011;27422;52.444;13.300;2023-05-20T03:18:05;5.25;;;2.58;;
41739;SDS011;27422;52.444;13.300;2023-05-20T03:20:32;4.82;;;2.70;;
41739;SDS011;27422;52.444;13.300;2023-05-20T03:22:57;7.72;;;2.60;;
41739;SDS011;27422;52.444;13.300;2023-05-20T03:25:23;5.63;;;2.58;;
41739;SDS011;27422;52.444;13.300;2023-05-20T03:27:48;4.88;;;2.58;;
41739;SDS011;27422;52.444;13.300;2023-05-20T03:30:14;5.00;;;2.58;;
41739;SDS011;27422;52.444;13.300;2023-05-20T03:32:39;4.38;;;2.38;;
41739;SDS011;27422;52.444;13.300;2023-05-20T03:35:06;8.35;;;2.80;;
41739;SDS011;27422;52.444;13.300;2023-05-20T03:37:32;5.47;;;2.70;;
41739;SDS011;27422;52.444;13.300;2023-05-20T03:39:57;5.82;;;2.60;;
41739;SDS011;27422;52.444;13.300;2023-05-20T03:42:23;7.00;;;2.80;;
41739;SDS011;27422;52.444;13.300;2023-05-20T03:44:48;5.82;;;2.80;;
41739;SDS011;27422;52.444;13.300;2023-05-20T03:47:14;5.78;;;2.65;;
41739;SDS011;27422;52.444;13.300;2023-05-20T03:49:39;6.78;;;2.80;;
41739;SDS011;27422;52.444;13.300;2023-05-20T03:52:05;5.53;;;2.78;;
41739;SDS011;27422;52.444;13.300;2023-05-20T03:54:31;7.60;;;2.85;;
41739;SDS011;27422;52.444;13.300;2023-05-20T03:56:56;6.22;;;3.13;;
41739;SDS011;27422;52.444;13.300;2023-05-20T03:59:22;4.55;;;2.67;;
41739;SDS011;27422;52.444;13.300;2023-05-20T04:01:47;5.97;;;2.80;;
41739;SDS011;27422;52.444;13.300;2023-05-20T04:04:13;7.55;;;3.20;;
41739;SDS011;27422;52.444;13.300;2023-05-20T04:06:38;6.78;;;3.42;;
41739;SDS011;27422;52.444;13.300;2023-05-20T04:09:04;5.07;;;2.50;;
41739;SDS011;27422;52.444;13.300;2023-05-20T04:11:30;7.05;;;3.15;;
41739;SDS011;27422;52.444;13.300;2023-05-20T04:13:55;5.93;;;2.42;;
41739;SDS011;27422;52.444;13.300;2023-05-20T04:16:22;5.72;;;2.78;;
41739;SDS011;27422;52.444;13.300;2023-05-20T04:18:48;6.15;;;3.05;;
41739;SDS011;27422;52.444;13.300;2023-05-20T04:21:13;5.40;;;2.88;;
41739;SDS011;27422;52.444;13.300;2023-05-20T04:23:39;6.22;;;3.05;;
41739;SDS011;27422;52.444;13.300;2023-05-20T04:26:04;8.45;;;2.90;;
41739;SDS011;27422;52.444;13.300;2023-05-20T04:28:29;6.60;;;2.85;;
41739;SDS011;27422;52.444;13.300;2023-05-20T04:30:58;6.60;;;3.08;;
41739;SDS011;27422;52.444;13.300;2023-05-20T04:33:25;4.65;;;2.45;;
41739;SDS011;27422;52.444;13.300;2023-05-20T04:35:51;7.22;;;3.10;;
41739;SDS011;27422;52.444;13.300;2023-05-20T04:38:16;6.32;;;2.65;;
41739;SDS011;27422;52.444;13.300;2023-05-20T04:40:41;4.93;;;2.80;;
41739;SDS011;27422;52.444;13.300;2023-05-20T04:43:07;7.10;;;3.00;;
41739;SDS011;27422;52.444;13.300;2023-05-20T04:45:33;7.28;;;3.13;;
41739;SDS011;27422;52.444;13.300;2023-05-20T04:47:59;6.90;;;3.08;;
41739;SDS011;27422;52.444;13.300;2023-05-20T04:50:25;5.32;;;3.10;;
41739;SDS011;27422;52.444;13.300;2023-05-20T04:52:51;6.55;;;3.03;;
41739;SDS011;27422;52.444;13.300;2023-05-20T04:55:16;5.40;;;2.80;;
41739;SDS011;27422;52.444;13.300;2023-05-20T04:57:42;7.75;;;3.15;;
41739;SDS011;27422;52.444;13.300;2023-05-20T05:00:08;7.43;;;2.85;;
41739;SDS011;27422;52.444;13.300;2023-05-20T05:02:34;6.85;;;2.92;;
41739;SDS011;27422;52.444;13.300;2023-05-20T05:05:00;7.20;;;2.92;;
41739;SDS011;27422;52.444;13.300;2023-05-20T05:07:26;11.13;;;3.25;;
41739;SDS011;27422;52.444;13.300;2023-05-20T05:09:51;5.28;;;2.72;;
41739;SDS011;27422;52.444;13.300;2023-05-20T05:12:16;6.65;;;3.20;;
41739;SDS011;27422;52.444;13.300;2023-05-20T05:14:42;8.07;;;3.25;;
41739;SDS011;27422;52.444;13.300;2023-05-20T05:17:07;7.85;;;3.17;;
41739;SDS011;27422;52.444;13.300;2023-05-20T05:19:32;6.18;;;3.17;;
41739;SDS011;27422;52.444;13.300;2023-05-20T05:21:58;5.82;;;2.97;;
41739;SDS011;27422;52.444;13.300;2023-05-20T05:24:23;6.05;;;2.70;;
41739;SDS011;27422;52.444;13.300;2023-05-20T05:26:52;8.38;;;3.22;;
41739;SDS011;27422;52.444;13.300;2023-05-20T05:29:18;6.93;;;3.45;;
41739;SDS011;27422;52.444;13.300;2023-05-20T05:31:43;6.45;;;3.08;;
41739;SDS011;27422;52.444;13.300;2023-05-20T05:34:09;6.10;;;3.10;;
41739;SDS011;27422;52.444;13.300;2023-05-20T05:36:34;7.85;;;3.42;;
41739;SDS011;27422;52.444;13.300;2023-05-20T05:38:59;6.47;;;3.50;;
41739;SDS011;27422;52.444;13.300;2023-05-20T05:41:25;8.52;;;3.55;;
41739;SDS011;27422;52.444;13.300;2023-05-20T05:43:50;7.05;;;3.30;;
41739;SDS011;27422;52.444;13.300;2023-05-20T05:46:16;6.40;;;3.10;;
41739;SDS011;27422;52.444;13.300;2023-05-20T05:48:44;6.07;;;3.30;;
41739;SDS011;27422;52.444;13.300;2023-05-20T05:51:13;7.18;;;3.58;;
41739;SDS011;27422;52.444;13.300;2023-05-20T05:53:39;6.07;;;3.10;;
41739;SDS011;27422;52.444;13.300;2023-05-20T05:56:04;6.35;;;3.00;;
41739;SDS011;27422;52.444;13.300;2023-05-20T05:58:30;7.07;;;3.50;;
41739;SDS011;27422;52.444;13.300;2023-05-20T06:00:57;11.55;;;3.20;;
41739;SDS011;27422;52.444;13.300;2023-05-20T06:03:22;8.82;;;3.63;;
41739;SDS011;27422;52.444;13.300;2023-05-20T06:05:47;6.60;;;3.60;;
41739;SDS011;27422;52.444;13.300;2023-05-20T06:08:13;5.55;;;3.50;;
41739;SDS011;27422;52.444;13.300;2023-05-20T06:10:40;7.57;;;3.60;;
41739;SDS011;27422;52.444;13.300;2023-05-20T06:13:05;7.45;;;3.45;;
41739;SDS011;27422;52.444;13.300;2023-05-20T06:15:31;6.28;;;3.75;;
41739;SDS011;27422;52.444;13.300;2023-05-20T06:17:56;6.05;;;3.38;;
41739;SDS011;27422;52.444;13.300;2023-05-20T06:20:25;7.95;;;3.95;;
41739;SDS011;27422;52.444;13.300;2023-05-20T06:22:50;7.40;;;3.85;;
41739;SDS011;27422;52.444;13.300;2023-05-20T06:25:15;9.00;;;3.90;;
41739;SDS011;27422;52.444;13.300;2023-05-20T06:27:44;8.07;;;3.97;;
41739;SDS011;27422;52.444;13.300;2023-05-20T06:30:09;6.53;;;3.50;;
41739;SDS011;27422;52.444;13.300;2023-05-20T06:32:35;8.25;;;3.60;;
41739;SDS011;27422;52.444;13.300;2023-05-20T06:35:01;7.90;;;3.60;;
41739;SDS011;27422;52.444;13.300;2023-05-20T06:37:26;7.30;;;3.90;;
41739;SDS011;27422;52.444;13.300;2023-05-20T06:39:51;9.00;;;4.75;;
41739;SDS011;27422;52.444;13.300;2023-05-20T06:42:18;6.60;;;3.83;;
41739;SDS011;27422;52.444;13.300;2023-05-20T06:44:47;10.40;;;5.43;;
41739;SDS011;27422;52.444;13.300;2023-05-20T06:47:15;11.13;;;5.60;;
41739;SDS011;27422;52.444;13.300;2023-05-20T06:49:42;6.72;;;3.35;;
41739;SDS011;27422;52.444;13.300;2023-05-20T06:52:07;7.38;;;3.63;;
41739;SDS011;27422;52.444;13.300;2023-05-20T06:54:33;7.32;;;3.65;;
41739;SDS011;27422;52.444;13.300;2023-05-20T06:57:03;6.90;;;3.65;;
41739;SDS011;27422;52.444;13.300;2023-05-20T06:59:30;7.60;;;4.03;;
41739;SDS011;27422;52.444;13.300;2023-05-20T07:01:56;6.43;;;3.38;;
41739;SDS011;27422;52.444;13.300;2023-05-20T07:04:21;6.95;;;3.78;;
41739;SDS011;27422;52.444;13.300;2023-05-20T07:06:47;7.97;;;3.65;;
41739;SDS011;27422;52.444;13.300;2023-05-20T07:09:12;6.32;;;3.42;;
41739;SDS011;27422;52.444;13.300;2023-05-20T07:11:37;8.35;;;3.42;;
41739;SDS011;27422;52.444;13.300;2023-05-20T07:14:03;8.05;;;3.50;;
41739;SDS011;27422;52.444;13.300;2023-05-20T07:16:29;9.38;;;5.30;;
41739;SDS011;27422;52.444;13.300;2023-05-20T07:18:56;7.22;;;3.88;;
41739;SDS011;27422;52.444;13.300;2023-05-20T07:21:21;6.80;;;3.63;;
41739;SDS011;27422;52.444;13.300;2023-05-20T07:23:47;6.50;;;3.33;;
41739;SDS011;27422;52.444;13.300;2023-05-20T07:26:12;7.40;;;3.58;;
41739;SDS011;27422;52.444;13.300;2023-05-20T07:28:37;7.13;;;3.78;;
41739;SDS011;27422;52.444;13.300;2023-05-20T07:31:03;7.85;;;3.80;;
41739;SDS011;27422;52.444;13.300;2023-05-20T07:33:30;7.13;;;3.50;;
41739;SDS011;27422;52.444;13.300;2023-05-20T07:35:56;6.60;;;3.72;;
41739;SDS011;27422;52.444;13.300;2023-05-20T07:38:21;8.43;;;3.92;;
41739;SDS011;27422;52.444;13.300;2023-05-20T07:40:47;7.00;;;3.28;;
41739;SDS011;27422;52.444;13.300;2023-05-20T07:43:13;6.57;;;3.28;;
41739;SDS011;27422;52.444;13.300;2023-05-20T07:45:38;7.30;;;3.17;;
41739;SDS011;27422;52.444;13.300;2023-05-20T07:48:04;7.85;;;3.42;;
41739;SDS011;27422;52.444;13.300;2023-05-20T07:50:29;5.10;;;2.83;;
41739;SDS011;27422;52.444;13.300;2023-05-20T07:52:55;6.57;;;3.42;;
41739;SDS011;27422;52.444;13.300;2023-05-20T07:55:21;5.72;;;3.30;;
41739;SDS011;27422;52.444;13.300;2023-05-20T07:57:46;10.07;;;4.75;;
41739;SDS011;27422;52.444;13.300;2023-05-20T08:00:11;7.38;;;3.97;;
41739;SDS011;27422;52.444;13.300;2023-05-20T08:02:37;7.75;;;3.20;;
41739;SDS011;27422;52.444;13.300;2023-05-20T08:05:03;6.40;;;3.50;;
41739;SDS011;27422;52.444;13.300;2023-05-20T08:07:29;6.18;;;2.90;;
41739;SDS011;27422;52.444;13.300;2023-05-20T08:09:54;6.22;;;3.08;;
41739;SDS011;27422;52.444;13.300;2023-05-20T08:12:20;5.50;;;3.28;;
41739;SDS011;27422;52.444;13.300;2023-05-20T08:14:46;5.75;;;2.92;;
41739;SDS011;27422;52.444;13.300;2023-05-20T08:17:11;5.72;;;3.25;;
41739;SDS011;27422;52.444;13.300;2023-05-20T08:19:36;7.07;;;3.50;;
41739;SDS011;27422;52.444;13.300;2023-05-20T08:22:02;4.65;;;2.55;;
41739;SDS011;27422;52.444;13.300;2023-05-20T08:24:27;5.72;;;3.22;;
41739;SDS011;27422;52.444;13.300;2023-05-20T08:26:52;6.78;;;2.55;;
41739;SDS011;27422;52.444;13.300;2023-05-20T08:29:18;6.85;;;3.30;;
41739;SDS011;27422;52.444;13.300;2023-05-20T08:31:44;6.13;;;3.22;;
41739;SDS011;27422;52.444;13.300;2023-05-20T08:34:10;6.68;;;3.25;;
41739;SDS011;27422;52.444;13.300;2023-05-20T08:36:35;7.13;;;3.83;;
41739;SDS011;27422;52.444;13.300;2023-05-20T08:39:00;6.00;;;3.22;;
41739;SDS011;27422;52.444;13.300;2023-05-20T08:41:26;4.93;;;2.90;;
41739;SDS011;27422;52.444;13.300;2023-05-20T08:43:52;6.13;;;3.20;;
41739;SDS011;27422;52.444;13.300;2023-05-20T08:46:17;5.80;;;3.40;;
41739;SDS011;27422;52.444;13.300;2023-05-20T08:48:43;7.28;;;3.53;;
41739;SDS011;27422;52.444;13.300;2023-05-20T08:51:09;6.32;;;3.10;;
41739;SDS011;27422;52.444;13.300;2023-05-20T08:53:35;6.05;;;3.17;;
41739;SDS011;27422;52.444;13.300;2023-05-20T08:56:01;6.32;;;3.30;;
41739;SDS011;27422;52.444;13.300;2023-05-20T08:58:30;6.28;;;3.17;;
41739;SDS011;27422;52.444;13.300;2023-05-20T09:00:59;6.47;;;2.97;;
41739;SDS011;27422;52.444;13.300;2023-05-20T09:03:24;5.75;;;2.90;;
41739;SDS011;27422;52.444;13.300;2023-05-20T09:05:51;6.43;;;3.05;;
41739;SDS011;27422;52.444;13.300;2023-05-20T09:08:17;7.03;;;2.83;;
41739;SDS011;27422;52.444;13.300;2023-05-20T09:10:47;6.05;;;3.25;;
41739;SDS011;27422;52.444;13.300;2023-05-20T09:13:12;6.13;;;3.35;;
41739;SDS011;27422;52.444;13.300;2023-05-20T09:15:37;6.30;;;3.40;;
41739;SDS011;27422;52.444;13.300;2023-05-20T09:18:05;6.47;;;3.70;;
41739;SDS011;27422;52.444;13.300;2023-05-20T09:20:32;8.05;;;3.60;;
41739;SDS011;27422;52.444;13.300;2023-05-20T09:23:02;16.42;;;9.02;;
41739;SDS011;27422;52.444;13.300;2023-05-20T09:25:28;7.10;;;3.75;;
41739;SDS011;27422;52.444;13.300;2023-05-20T09:27:54;7.65;;;3.70;;
41739;SDS011;27422;52.444;13.300;2023-05-20T09:30:20;5.63;;;3.35;;
41739;SDS011;27422;52.444;13.300;2023-05-20T09:32:53;6.22;;;3.42;;
41739;SDS011;27422;52.444;13.300;2023-05-20T09:35:20;8.25;;;4.03;;
41739;SDS011;27422;52.444;13.300;2023-05-20T09:37:45;6.25;;;3.78;;
41739;SDS011;27422;52.444;13.300;2023-05-20T09:40:13;7.85;;;4.15;;
41739;SDS011;27422;52.444;13.300;2023-05-20T09:45:08;6.82;;;3.40;;
41739;SDS011;27422;52.444;13.300;2023-05-20T09:47:36;6.03;;;3.53;;
41739;SDS011;27422;52.444;13.300;2023-05-20T09:50:03;6.72;;;3.53;;
41739;SDS011;27422;52.444;13.300;2023-05-20T09:52:31;7.40;;;3.92;;
41739;SDS011;27422;52.444;13.300;2023-05-20T09:54:59;6.77;;;4.10;;
41739;SDS011;27422;52.444;13.300;2023-05-20T09:57:27;6.32;;;3.83;;
41739;SDS011;27422;52.444;13.300;2023-05-20T09:59:54;7.78;;;4.15;;
41739;SDS011;27422;52.444;13.300;2023-05-20T10:02:20;8.10;;;4.70;;
41739;SDS011;27422;52.444;13.300;2023-05-20T10:04:46;6.50;;;3.78;;
41739;SDS011;27422;52.444;13.300;2023-05-20T10:19:11;8.98;;;4.20;;
41739;SDS011;27422;52.444;13.300;2023-05-20T10:21:40;7.82;;;4.22;;
41739;SDS011;27422;52.444;13.300;2023-05-20T10:24:06;7.80;;;4.10;;
41739;SDS011;27422;52.444;13.300;2023-05-20T10:26:40;8.80;;;4.57;;
41739;SDS011;27422;52.444;13.300;2023-05-20T10:29:15;8.60;;;4.85;;
41739;SDS011;27422;52.444;13.300;2023-05-20T10:31:50;8.75;;;4.60;;
41739;SDS011;27422;52.444;13.300;2023-05-20T10:34:16;7.75;;;4.53;;
41739;SDS011;27422;52.444;13.300;2023-05-20T10:36:55;7.68;;;4.25;;
41739;SDS011;27422;52.444;13.300;2023-05-20T10:39:26;7.43;;;4.00;;
41739;SDS011;27422;52.444;13.300;2023-05-20T10:41:52;7.63;;;3.90;;
41739;SDS011;27422;52.444;13.300;2023-05-20T10:44:18;7.78;;;4.50;;
41739;SDS011;27422;52.444;13.300;2023-05-20T10:46:44;6.47;;;4.05;;
41739;SDS011;27422;52.444;13.300;2023-05-20T10:49:18;11.80;;;4.55;;
41739;SDS011;27422;52.444;13.300;2023-05-20T10:51:45;8.25;;;4.30;;
41739;SDS011;27422;52.444;13.300;2023-05-20T10:54:11;7.78;;;4.47;;
41739;SDS011;27422;52.444;13.300;2023-05-20T10:56:38;6.50;;;4.07;;
41739;SDS011;27422;52.444;13.300;2023-05-20T10:59:05;8.10;;;4.60;;
41739;SDS011;27422;52.444;13.300;2023-05-20T11:01:30;7.07;;;4.22;;
41739;SDS011;27422;52.444;13.300;2023-05-20T11:03:56;6.15;;;4.00;;
41739;SDS011;27422;52.444;13.300;2023-05-20T11:06:24;7.60;;;4.15;;
41739;SDS011;27422;52.444;13.300;2023-05-20T11:08:52;7.25;;;4.60;;
41739;SDS011;27422;52.444;13.300;2023-05-20T11:11:17;7.72;;;4.22;;
41739;SDS011;27422;52.444;13.300;2023-05-20T11:13:43;7.18;;;4.32;;
41739;SDS011;27422;52.444;13.300;2023-05-20T11:16:12;7.60;;;4.18;;
41739;SDS011;27422;52.444;13.300;2023-05-20T11:18:37;7.50;;;4.25;;
41739;SDS011;27422;52.444;13.300;2023-05-20T11:21:02;7.20;;;4.20;;
41739;SDS011;27422;52.444;13.300;2023-05-20T11:23:28;9.25;;;4.45;;
41739;SDS011;27422;52.444;13.300;2023-05-20T11:25:54;7.82;;;4.22;;
41739;SDS011;27422;52.444;13.300;2023-05-20T11:28:20;10.93;;;4.93;;
41739;SDS011;27422;52.444;13.300;2023-05-20T11:30:47;8.20;;;4.63;;
41739;SDS011;27422;52.444;13.300;2023-05-20T11:33:14;7.97;;;4.50;;
41739;SDS011;27422;52.444;13.300;2023-05-20T11:35:48;8.05;;;4.78;;
41739;SDS011;27422;52.444;13.300;2023-05-20T11:38:15;9.05;;;4.57;;
41739;SDS011;27422;52.444;13.300;2023-05-20T11:40:44;6.80;;;4.40;;
41739;SDS011;27422;52.444;13.300;2023-05-20T11:43:19;8.32;;;4.45;;
41739;SDS011;27422;52.444;13.300;2023-05-20T11:45:46;7.80;;;4.03;;
41739;SDS011;27422;52.444;13.300;2023-05-20T11:48:12;8.60;;;4.03;;
41739;SDS011;27422;52.444;13.300;2023-05-20T11:50:42;7.75;;;4.85;;
41739;SDS011;27422;52.444;13.300;2023-05-20T11:53:18;8.10;;;4.00;;
41739;SDS011;27422;52.444;13.300;2023-05-20T11:55:57;7.18;;;4.63;;
41739;SDS011;27422;52.444;13.300;2023-05-20T11:58:26;8.07;;;4.78;;
41739;SDS011;27422;52.444;13.300;2023-05-20T12:00:53;8.50;;;4.68;;
41739;SDS011;27422;52.444;13.300;2023-05-20T12:03:19;7.22;;;4.30;;
41739;SDS011;27422;52.444;13.300;2023-05-20T12:05:44;6.03;;;4.25;;
41739;SDS011;27422;52.444;13.300;2023-05-20T12:08:11;7.35;;;4.15;;
41739;SDS011;27422;52.444;13.300;2023-05-20T12:10:37;8.25;;;4.38;;
41739;SDS011;27422;52.444;13.300;2023-05-20T12:13:02;8.55;;;4.32;;
41739;SDS011;27422;52.444;13.300;2023-05-20T12:15:28;7.18;;;4.47;;
41739;SDS011;27422;52.444;13.300;2023-05-20T12:17:54;7.38;;;4.63;;
41739;SDS011;27422;52.444;13.300;2023-05-20T12:20:23;8.50;;;4.45;;
41739;SDS011;27422;52.444;13.300;2023-05-20T12:22:51;6.95;;;4.32;;
41739;SDS011;27422;52.444;13.300;2023-05-20T12:25:17;6.68;;;4.10;;
41739;SDS011;27422;52.444;13.300;2023-05-20T12:27:46;7.72;;;4.28;;
41739;SDS011;27422;52.444;13.300;2023-05-20T12:30:19;7.07;;;4.20;;
41739;SDS011;27422;52.444;13.300;2023-05-20T12:32:46;6.68;;;4.05;;
41739;SDS011;27422;52.444;13.300;2023-05-20T12:35:13;8.45;;;4.20;;
41739;SDS011;27422;52.444;13.300;2023-05-20T12:37:39;7.43;;;4.28;;
41739;SDS011;27422;52.444;13.300;2023-05-20T12:40:06;8.45;;;4.45;;
41739;SDS011;27422;52.444;13.300;2023-05-20T12:42:43;7.80;;;4.13;;
41739;SDS011;27422;52.444;13.300;2023-05-20T12:45:08;7.78;;;4.10;;
41739;SDS011;27422;52.444;13.300;2023-05-20T12:47:34;9.57;;;4.57;;
41739;SDS011;27422;52.444;13.300;2023-05-20T12:50:01;8.15;;;4.60;;
41739;SDS011;27422;52.444;13.300;2023-05-20T12:52:27;9.32;;;5.22;;
41739;SDS011;27422;52.444;13.300;2023-05-20T12:54:53;9.32;;;4.75;;
41739;SDS011;27422;52.444;13.300;2023-05-20T12:57:20;8.65;;;4.93;;
41739;SDS011;27422;52.444;13.300;2023-05-20T12:59:45;7.55;;;4.30;;
41739;SDS011;27422;52.444;13.300;2023-05-20T13:02:10;7.10;;;4.25;;
41739;SDS011;27422;52.444;13.300;2023-05-20T13:04:36;7.07;;;4.60;;
41739;SDS011;27422;52.444;13.300;2023-05-20T13:07:02;7.90;;;4.90;;
41739;SDS011;27422;52.444;13.300;2023-05-20T13:09:28;9.27;;;4.75;;
41739;SDS011;27422;52.444;13.300;2023-05-20T13:11:53;9.63;;;5.07;;
41739;SDS011;27422;52.444;13.300;2023-05-20T13:14:19;8.20;;;5.00;;
41739;SDS011;27422;52.444;13.300;2023-05-20T13:16:45;7.78;;;4.10;;
41739;SDS011;27422;52.444;13.300;2023-05-20T13:19:18;8.35;;;4.32;;
41739;SDS011;27422;52.444;13.300;2023-05-20T13:21:48;9.38;;;4.38;;
41739;SDS011;27422;52.444;13.300;2023-05-20T13:24:16;6.63;;;4.25;;
41739;SDS011;27422;52.444;13.300;2023-05-20T13:26:42;8.73;;;4.57;;
41739;SDS011;27422;52.444;13.300;2023-05-20T13:29:07;6.65;;;4.07;;
41739;SDS011;27422;52.444;13.300;2023-05-20T13:31:33;5.72;;;3.22;;
41739;SDS011;27422;52.444;13.300;2023-05-20T13:34:05;7.45;;;3.75;;
41739;SDS011;27422;52.444;13.300;2023-05-20T13:36:31;6.05;;;3.63;;
41739;SDS011;27422;52.444;13.300;2023-05-20T13:38:56;5.57;;;3.55;;
41739;SDS011;27422;52.444;13.300;2023-05-20T13:41:22;5.75;;;3.70;;
41739;SDS011;27422;52.444;13.300;2023-05-20T13:43:49;5.70;;;3.45;;
41739;SDS011;27422;52.444;13.300;2023-05-20T13:46:14;6.40;;;3.80;;
41739;SDS011;27422;52.444;13.300;2023-05-20T13:48:40;5.90;;;3.60;;
41739;SDS011;27422;52.444;13.300;2023-05-20T13:51:05;5.55;;;3.47;;
41739;SDS011;27422;52.444;13.300;2023-05-20T13:53:31;5.57;;;3.83;;
41739;SDS011;27422;52.444;13.300;2023-05-20T13:55:56;5.80;;;3.40;;
41739;SDS011;27422;52.444;13.300;2023-05-20T13:58:22;6.07;;;3.70;;
41739;SDS011;27422;52.444;13.300;2023-05-20T14:00:50;6.00;;;3.40;;
41739;SDS011;27422;52.444;13.300;2023-05-20T14:03:16;5.57;;;3.60;;
41739;SDS011;27422;52.444;13.300;2023-05-20T14:05:47;6.88;;;3.63;;
41739;SDS011;27422;52.444;13.300;2023-05-20T14:08:13;6.63;;;4.03;;
41739;SDS011;27422;52.444;13.300;2023-05-20T14:10:38;6.65;;;3.38;;
41739;SDS011;27422;52.444;13.300;2023-05-20T14:13:07;6.30;;;3.55;;
41739;SDS011;27422;52.444;13.300;2023-05-20T14:15:34;6.65;;;3.80;;
41739;SDS011;27422;52.444;13.300;2023-05-20T14:18:00;7.07;;;4.00;;
41739;SDS011;27422;52.444;13.300;2023-05-20T14:20:25;6.30;;;3.63;;
41739;SDS011;27422;52.444;13.300;2023-05-20T14:22:51;6.32;;;3.75;;
41739;SDS011;27422;52.444;13.300;2023-05-20T14:25:16;6.25;;;3.85;;
41739;SDS011;27422;52.444;13.300;2023-05-20T14:27:42;6.95;;;4.30;;
41739;SDS011;27422;52.444;13.300;2023-05-20T14:30:07;7.15;;;4.60;;
41739;SDS011;27422;52.444;13.300;2023-05-20T14:32:33;6.75;;;4.18;;
41739;SDS011;27422;52.444;13.300;2023-05-20T14:34:59;7.18;;;3.75;;
41739;SDS011;27422;52.444;13.300;2023-05-20T14:37:31;5.75;;;3.65;;
41739;SDS011;27422;52.444;13.300;2023-05-20T14:39:56;8.75;;;3.88;;
41739;SDS011;27422;52.444;13.300;2023-05-20T14:42:22;6.90;;;4.22;;